Time;durP1;ratioP1;P1;durP2;ratioP2;P2;SDS_P1;SDS_P2;PMS_P1;PMS_P2;Temp;Humidity;BMP_temperature;BMP_pressure;BME280_temperature;BME280_humidity;BME280_pressure;Samples;Min_cycle;Max_cycle;Signal;HPM_P1;HPM_P2
2022/04/23 01:42:25;;;;;;;;;22.50;18.75;;;;;14.47;92.62;99424.94;6203466;22;495176;-96
2022/04/23 01:44:52;;;;;;;;;23.25;19.00;;;;;14.35;92.69;99402.88;6221630;22;45522;-96
2022/04/23 01:47:18;;;;;;;;;17.25;15.50;;;;;14.41;92.58;99416.13;6221550;22;46998;-96
2022/04/23 01:49:44;;;;;;;;;19.25;19.25;;;;;14.30;93.33;99394.03;6221071;22;46081;-96
2022/04/23 01:52:15;;;;;;;;;21.75;19.50;;;;;14.32;92.73;99407.25;6220525;22;45323;-96
2022/04/23 01:54:46;;;;;;;;;22.00;19.25;;;;;14.30;92.30;99407.25;6218856;22;45499;-96
2022/04/23 01:57:11;;;;;;;;;21.25;17.25;;;;;14.32;92.43;99404.59;6220801;22;48511;-95
2022/04/23 01:59:37;;;;;;;;;23.50;19.00;;;;;14.35;92.44;99409.91;6216123;22;45310;-95
2022/04/23 02:02:03;;;;;;;;;17.75;16.25;;;;;14.29;92.43;99400.19;6221754;22;44799;-96
2022/04/23 02:04:28;;;;;;;;;16.25;12.75;;;;;14.41;92.55;99408.19;6222932;22;44916;-96
2022/04/23 02:06:54;;;;;;;;;23.00;18.75;;;;;14.33;92.74;99391.41;6223661;22;47210;-96
2022/04/23 02:09:20;;;;;;;;;22.50;18.00;;;;;14.34;93.14;99395.81;6224141;22;45209;-96
2022/04/23 02:11:45;;;;;;;;;19.50;19.00;;;;;14.35;93.16;99394.97;6216741;22;44651;-96
2022/04/23 02:14:18;;;;;;;;;23.50;22.00;;;;;14.38;93.08;99407.31;6241962;22;44814;-96
2022/04/23 02:16:43;;;;;;;;;19.00;17.25;;;;;14.36;92.95;99404.63;6237356;22;47141;-96
2022/04/23 02:19:09;;;;;;;;;24.33;20.00;;;;;14.30;93.39;99386.13;6177618;22;46492;-96
2022/04/23 02:21:37;;;;;;;;;22.00;16.50;;;;;14.28;93.18;99382.56;6351807;22;45405;-96
2022/04/23 02:24:04;;;;;;;;;19.00;17.25;;;;;14.34;93.57;99393.19;6322759;22;45439;-96
2022/04/23 02:26:32;;;;;;;;;22.00;20.75;;;;;14.38;93.41;99400.25;6320779;22;47310;-96
2022/04/23 02:28:58;;;;;;;;;18.75;17.00;;;;;14.28;93.57;99386.09;6322313;22;45421;-96
2022/04/23 02:31:23;;;;;;;;;16.25;16.25;;;;;14.35;93.40;99402.00;6348002;22;45390;-96
2022/04/23 02:33:49;;;;;;;;;24.25;20.00;;;;;14.32;93.48;99394.03;6328312;22;45372;-96
2022/04/23 02:36:17;;;;;;;;;21.75;19.50;;;;;14.26;93.58;99385.19;6326049;22;47240;-96
2022/04/23 02:38:43;;;;;;;;;19.00;18.00;;;;;14.36;93.84;99394.06;6355844;22;45158;-96
2022/04/23 02:41:11;;;;;;;;;21.75;20.00;;;;;14.35;93.78;99394.06;6329778;22;45201;-96
2022/04/23 02:43:46;;;;;;;;;16.50;15.25;;;;;14.24;93.58;99375.50;6360404;22;44817;-96
2022/04/23 02:46:21;;;;;;;;;21.50;19.75;;;;;14.32;93.51;99386.13;6328273;22;48378;-96
2022/04/23 02:48:49;;;;;;;;;19.50;18.50;;;;;14.27;93.91;99376.44;6302932;22;45263;-96
2022/04/23 02:51:22;;;;;;;;;22.50;19.25;;;;;14.14;93.60;99364.88;6335152;22;45360;-96
2022/04/23 02:53:49;;;;;;;;;21.50;17.75;;;;;14.17;93.83;99367.53;6301941;22;45432;-96
2022/04/23 02:56:22;;;;;;;;;18.25;16.75;;;;;14.21;94.43;99373.72;6224320;22;46546;-96
2022/04/23 03:04:00;;;;;;;;;22.25;18.50;;;;;14.07;93.79;99349.88;6189449;22;46125;-96
2022/04/23 03:06:39;;;;;;;;;19.50;17.75;;;;;14.17;94.46;99364.03;6162700;23;46943;-96
2022/04/23 03:09:21;;;;;;;;;28.50;20.50;;;;;14.08;94.37;99354.25;6138920;23;45206;-96
2022/04/23 03:11:56;;;;;;;;;19.00;16.75;;;;;14.03;94.69;99346.31;6160933;22;45265;-96
2022/04/23 03:14:48;;;;;;;;;23.75;22.75;;;;;13.98;94.32;99341.84;6162908;23;44825;-96
2022/04/23 03:17:14;;;;;;;;;24.75;18.75;;;;;14.08;94.75;99362.19;6139387;22;47192;-96
2022/04/23 03:20:01;;;;;;;;;26.25;21.50;;;;;13.93;94.69;99336.56;6165731;23;45921;-96
2022/04/23 03:23:13;;;;;;;;;20.75;17.00;;;;;13.88;94.70;99328.59;6189713;22;45197;-96
2022/04/23 03:25:51;;;;;;;;;23.75;19.25;;;;;13.88;95.37;99333.00;6146557;23;45392;-96
2022/04/23 03:28:30;;;;;;;;;16.75;16.75;;;;;13.85;95.28;99334.72;6172530;23;45602;-96
2022/04/23 03:30:56;;;;;;;;;21.00;20.00;;;;;13.83;95.66;99327.69;6163033;23;45348;-96
2022/04/23 03:33:36;;;;;;;;;16.50;13.25;;;;;13.91;95.64;99346.22;6143228;23;45115;-96
2022/04/23 03:36:02;;;;;;;;;21.00;19.25;;;;;13.78;95.78;99326.75;6060688;23;45423;-96
2022/04/23 03:38:29;;;;;;;;;24.25;18.00;;;;;13.81;95.98;99329.41;6166955;23;47787;-96
2022/04/23 03:41:00;;;;;;;;;21.75;20.00;;;;;13.67;95.75;99313.47;6139633;23;44918;-96
2022/04/23 03:43:27;;;;;;;;;20.75;19.25;;;;;13.67;96.47;99305.53;6165270;23;45391;-96
2022/04/23 03:46:04;;;;;;;;;24.50;22.50;;;;;13.62;96.29;99309.03;6140382;22;45233;-96
2022/04/23 03:48:40;;;;;;;;;22.50;19.00;;;;;13.60;96.35;99300.22;6169311;23;47930;-96
2022/04/23 03:51:30;;;;;;;;;23.75;19.75;;;;;13.55;96.55;99299.28;6192229;23;45382;-96
2022/04/23 03:54:19;;;;;;;;;20.75;19.75;;;;;13.54;96.66;99300.13;6143841;23;45313;-96
2022/04/23 03:56:45;;;;;;;;;17.75;17.75;;;;;13.52;96.96;99288.69;6138955;23;45508;-96
2022/04/23 03:59:11;;;;;;;;;17.50;17.00;;;;;13.58;97.14;99298.44;6159087;22;46898;-96
2022/04/23 04:01:36;;;;;;;;;18.75;16.50;;;;;13.53;97.10;99287.81;6155281;22;45449;-96
2022/04/23 04:04:02;;;;;;;;;16.00;15.00;;;;;13.57;97.04;99307.22;6161826;23;44861;-96
2022/04/23 04:06:28;;;;;;;;;22.00;17.00;;;;;13.46;97.52;99285.97;6179715;23;45457;-95
2022/04/23 04:08:55;;;;;;;;;17.75;13.75;;;;;13.44;97.26;99293.00;6180279;23;47481;-96
2022/04/23 04:12:00;;;;;;;;;23.75;19.50;;;;;13.40;97.21;99286.81;6180972;23;45485;-96
2022/04/23 04:14:12;;;;;;;;;30.25;26.00;;;;;13.36;97.39;99274.47;6185370;23;45407;-96
2022/04/23 04:16:38;;;;;;;;;22.25;21.25;;;;;13.49;97.63;99293.94;6182540;23;45436;-96
2022/04/23 04:19:04;;;;;;;;;22.75;22.25;;;;;13.38;97.78;99278.88;6180768;23;48651;-95
2022/04/23 04:21:32;;;;;;;;;28.00;24.50;;;;;13.39;98.13;99285.94;6182145;23;44805;-96
2022/04/23 04:23:59;;;;;;;;;20.50;19.00;;;;;13.31;98.16;99277.06;6188676;23;45472;-96
2022/04/23 04:29:26;;;;;;;;;26.75;20.00;;;;;13.25;98.22;99269.97;6196306;22;45377;-96
2022/04/23 04:31:57;;;;;;;;;21.75;18.75;;;;;13.25;98.71;99279.63;6190559;23;44747;-96
2022/04/23 04:37:30;;;;;;;;;20.00;17.25;;;;;13.32;98.42;99289.38;6250210;22;45526;-96
2022/04/23 04:39:56;;;;;;;;;20.75;19.50;;;;;13.22;98.79;99276.97;6247602;22;47196;-96
2022/04/23 04:42:27;;;;;;;;;19.50;17.75;;;;;13.30;98.66;99285.81;6245506;22;45439;-96
2022/04/23 04:44:52;;;;;;;;;16.25;16.25;;;;;13.27;98.76;99286.66;6246696;22;45326;-96
2022/04/23 04:47:19;;;;;;;;;18.75;16.00;;;;;13.17;99.26;99263.72;6228457;22;45608;-96
2022/04/23 04:50:23;;;;;;;;;17.25;17.25;;;;;13.25;99.04;99276.97;6254940;22;47025;-96
2022/04/23 04:52:51;;;;;;;;;12.75;12.75;;;;;13.19;99.20;99275.19;6257241;22;45156;-96
2022/04/23 04:55:17;;;;;;;;;19.50;19.50;;;;;13.24;98.95;99283.13;6244588;22;45480;-95
2022/04/23 04:57:42;;;;;;;;;14.75;14.75;;;;;13.18;99.19;99284.84;6244440;22;45460;-96
2022/04/23 05:00:20;;;;;;;;;17.50;14.25;;;;;13.19;99.62;99276.03;6243991;22;46983;-96
2022/04/23 05:02:55;;;;;;;;;17.25;15.25;;;;;13.25;99.66;99280.50;6110860;23;45384;-96
2022/04/23 05:05:21;;;;;;;;;13.75;13.50;;;;;13.13;99.45;99267.22;6184175;23;45393;-96
2022/04/23 05:07:52;;;;;;;;;21.00;17.00;;;;;13.12;99.70;99266.31;6166192;23;45588;-96
2022/04/23 05:10:31;;;;;;;;;23.00;17.50;;;;;13.13;100.00;99261.94;6188310;23;46972;-96
2022/04/23 05:13:09;;;;;;;;;21.00;17.75;;;;;13.17;100.00;99272.53;6168132;23;45381;-96
2022/04/23 05:18:34;;;;;;;;;24.25;18.00;;;;;13.20;100.00;99258.50;6198781;22;47083;-96
2022/04/23 05:21:18;;;;;;;;;19.00;16.00;;;;;13.22;100.00;99266.44;6225290;22;45558;-96
2022/04/23 05:23:47;;;;;;;;;16.25;14.75;;;;;13.21;100.00;99264.66;6179092;22;45346;-96
2022/04/23 05:26:15;;;;;;;;;12.75;12.50;;;;;13.22;100.00;99262.03;6230449;22;44675;-96
2022/04/23 05:28:50;;;;;;;;;16.50;16.50;;;;;13.25;100.00;99264.69;6230721;22;45303;-96
2022/04/23 06:38:21;;;;;;;;;19.25;17.75;;;;;14.82;99.91;99291.34;6181987;22;46299;-91
2022/04/23 06:40:47;;;;;;;;;19.50;17.75;;;;;14.90;100.00;99300.22;6180587;22;45494;-92
2022/04/23 06:43:13;;;;;;;;;21.75;18.75;;;;;14.95;99.97;99280.00;6179956;22;45559;-85
2022/04/23 06:45:38;;;;;;;;;23.25;18.25;;;;;15.08;99.77;99285.31;6204337;22;45496;-87
2022/04/23 06:48:04;;;;;;;;;21.75;17.00;;;;;15.17;99.63;99298.59;6202316;22;45284;-90
2022/04/23 06:50:34;;;;;;;;;17.75;17.75;;;;;15.24;99.51;99301.22;6205072;22;45281;-92
2022/04/23 06:53:01;;;;;;;;;20.50;18.00;;;;;15.23;99.14;99292.41;6179797;22;45600;-90
2022/04/23 06:55:27;;;;;;;;;21.00;21.00;;;;;15.29;99.22;99294.19;6206572;22;46607;-90
2022/04/23 06:57:52;;;;;;;;;23.00;18.00;;;;;15.28;99.02;99289.81;6182890;22;45321;-85
2022/04/23 07:00:19;;;;;;;;;21.00;15.25;;;;;15.40;98.92;99304.81;6203735;22;45754;-85
2022/04/23 07:02:44;;;;;;;;;25.75;19.25;;;;;15.47;98.88;99301.28;6204538;22;45654;-89
2022/04/23 07:05:10;;;;;;;;;25.25;22.50;;;;;15.56;98.45;99295.16;6201850;22;45217;-87
2022/04/23 07:07:35;;;;;;;;;20.50;20.00;;;;;15.64;98.30;99308.38;6204952;22;45340;-88
2022/04/23 07:10:00;;;;;;;;;17.75;16.75;;;;;15.71;98.59;99309.25;6204045;22;45807;-88
2022/04/23 07:12:25;;;;;;;;;21.25;18.25;;;;;15.80;98.52;99300.44;6205132;22;45357;-85
2022/04/23 07:14:51;;;;;;;;;7.50;4.25;;;;;15.85;98.38;99293.38;6205891;22;45401;-88
2022/04/23 07:17:23;;;;;;;;;20.75;20.25;;;;;15.94;98.10;99303.09;6179603;22;45296;-87
2022/04/23 07:19:48;;;;;;;;;21.00;17.50;;;;;16.02;98.05;99296.03;6207945;22;45303;-85
2022/04/23 07:22:14;;;;;;;;;24.75;20.75;;;;;16.09;97.68;99296.94;6204567;22;45241;-89
2022/04/23 07:24:39;;;;;;;;;16.25;15.00;;;;;16.13;97.61;99292.53;6203331;22;53579;-85
2022/04/23 07:27:04;;;;;;;;;24.75;20.25;;;;;16.18;97.70;99299.56;6178698;22;45263;-88
2022/04/23 07:29:30;;;;;;;;;22.25;20.00;;;;;16.26;97.63;99296.91;6206434;22;45228;-87
2022/04/23 07:31:57;;;;;;;;;20.00;19.25;;;;;16.38;97.39;99297.78;6208278;22;45273;-86
2022/04/23 07:39:50;;;;;;;;;21.75;18.00;;;;;16.55;96.99;99297.75;6204763;22;45309;-87
2022/04/23 07:42:16;;;;;;;;;15.75;15.00;;;;;16.64;97.01;99296.84;6178646;22;45239;-86
2022/04/23 07:44:42;;;;;;;;;25.75;25.25;;;;;16.72;96.85;99305.66;6178278;22;45998;-91
2022/04/23 07:47:07;;;;;;;;;18.75;16.50;;;;;16.71;96.67;99287.97;6206115;22;45395;-88
2022/04/23 07:49:33;;;;;;;;;23.50;22.00;;;;;16.71;96.73;99287.97;6180089;22;45361;-93
2022/04/23 07:51:59;;;;;;;;;24.00;21.50;;;;;16.73;96.66;99287.97;6209335;22;45399;-91
2022/04/23 07:54:24;;;;;;;;;21.50;19.50;;;;;16.63;96.49;99293.31;6205516;22;46339;-91
2022/04/23 07:56:50;;;;;;;;;26.00;20.75;;;;;16.60;96.44;99298.59;6207751;22;45332;-92
2022/04/23 07:59:15;;;;;;;;;24.75;21.00;;;;;16.55;96.41;99294.19;6182173;22;45388;-91
2022/04/23 08:01:41;;;;;;;;;21.00;18.50;;;;;16.56;96.18;99282.72;6183449;22;45302;-92
2022/04/23 08:04:06;;;;;;;;;18.00;16.75;;;;;16.67;96.93;99280.94;6183763;22;46947;-95
2022/04/23 08:06:32;;;;;;;;;16.50;15.50;;;;;16.85;96.71;99290.56;6180587;22;45419;-92
2022/04/23 08:08:57;;;;;;;;;21.75;18.00;;;;;16.96;96.60;99284.34;6207487;22;45312;-93
2022/04/23 08:11:23;;;;;;;;;26.25;23.50;;;;;17.07;96.75;99279.00;6180797;22;45253;-96
2022/04/23 08:13:50;;;;;;;;;19.25;16.00;;;;;17.28;96.36;99287.75;6179842;22;46872;-89
2022/04/23 08:16:15;;;;;;;;;22.25;20.25;;;;;17.34;96.09;99277.13;6181991;22;45323;-93
2022/04/23 08:18:41;;;;;;;;;25.50;21.75;;;;;17.53;96.14;99282.28;6178531;22;45276;-93
2022/04/23 08:21:09;;;;;;;;;20.00;18.25;;;;;17.65;96.08;99281.34;6182319;22;45553;-94
2022/04/23 08:23:35;;;;;;;;;23.75;20.00;;;;;17.80;95.92;99285.63;6180955;22;47709;-87
2022/04/23 08:26:02;;;;;;;;;22.50;19.25;;;;;17.96;95.83;99288.16;6210223;22;45270;-86
2022/04/23 08:31:15;;;;;;;;;29.50;26.75;;;;;18.17;95.00;99288.84;6204726;22;45388;-85
2022/04/23 08:33:58;;;;;;;;;26.50;25.50;;;;;18.26;95.12;99291.47;6178790;22;47290;-87
2022/04/23 08:36:26;;;;;;;;;22.00;21.50;;;;;18.35;95.27;99281.63;6176674;22;46011;-85
2022/04/23 08:38:51;;;;;;;;;26.25;22.00;;;;;18.45;94.99;99283.28;6230525;22;45285;-86
2022/04/23 08:41:17;;;;;;;;;27.75;20.50;;;;;18.52;95.18;99282.34;6202247;22;45549;-87
2022/04/23 08:43:42;;;;;;;;;25.00;21.25;;;;;18.62;94.79;99292.84;6208563;22;45296;-90
2022/04/23 08:46:08;;;;;;;;;22.50;20.00;;;;;18.70;94.49;99290.09;6205302;22;45334;-89
2022/04/23 08:48:50;;;;;;;;;25.25;22.00;;;;;18.74;94.50;99287.38;6312747;22;45470;-89
2022/04/23 08:51:21;;;;;;;;;19.75;19.50;;;;;18.80;94.48;99286.44;6205284;22;45477;-90
2022/04/23 08:53:48;;;;;;;;;22.50;21.00;;;;;18.84;94.47;99279.28;6313526;22;47136;-90
2022/04/23 08:56:13;;;;;;;;;27.00;21.75;;;;;18.91;94.69;99278.34;6320602;22;45228;-89
2022/04/23 08:58:39;;;;;;;;;27.25;22.25;;;;;18.97;94.13;99282.66;6209152;22;45296;-90
2022/04/23 09:01:05;;;;;;;;;27.75;22.25;;;;;19.02;94.10;99279.97;6207344;22;45352;-90
2022/04/23 09:03:31;;;;;;;;;21.00;20.00;;;;;19.05;94.43;99282.56;6206160;22;45903;-89
2022/04/23 09:05:56;;;;;;;;;28.25;20.25;;;;;19.10;94.13;99288.72;6311430;22;45601;-90
2022/04/23 09:08:23;;;;;;;;;20.25;18.25;;;;;19.13;94.33;99280.69;6312804;22;45255;-90
2022/04/23 09:10:57;;;;;;;;;19.00;17.75;;;;;19.22;93.92;99286.81;6312534;22;45289;-90
2022/04/23 09:13:25;;;;;;;;;22.00;20.25;;;;;19.28;94.00;99287.59;6206091;22;46160;-88
2022/04/23 09:24:43;;;;;;;;;24.00;21.50;;;;;19.45;93.49;99288.28;6204812;22;45592;-89
2022/04/23 09:27:09;;;;;;;;;25.50;22.25;;;;;19.58;93.83;99296.94;6312292;22;45315;-91
2022/04/23 09:29:34;;;;;;;;;21.50;20.25;;;;;19.75;93.74;99288.69;6314730;22;45391;-96
2022/04/23 09:32:17;;;;;;;;;28.50;26.25;;;;;19.87;93.41;99296.47;6313886;22;45289;-87
2022/04/23 09:34:42;;;;;;;;;27.00;25.75;;;;;19.86;93.10;99292.06;6205439;22;45450;-88
2022/04/23 09:37:08;;;;;;;;;23.25;20.50;;;;;19.85;92.99;99300.94;6207411;22;45300;-89
2022/04/23 09:39:36;;;;;;;;;28.50;21.50;;;;;19.82;92.81;99310.75;6310896;22;45438;-89
2022/04/23 09:42:11;;;;;;;;;24.50;23.50;;;;;19.81;92.96;99299.25;6206640;22;45281;-87
2022/04/23 09:44:36;;;;;;;;;27.00;21.75;;;;;19.83;93.12;99291.22;6316920;22;47117;-88
2022/04/23 09:47:01;;;;;;;;;21.00;18.33;;;;;19.88;92.96;99292.03;6224641;22;44821;-92
2022/04/23 09:49:27;;;;;;;;;26.25;23.75;;;;;19.94;93.03;99289.28;6331266;22;44861;-87
2022/04/23 09:52:05;;;;;;;;;24.75;21.25;;;;;20.12;93.07;99295.22;6223860;22;45302;-89
2022/04/23 09:54:32;;;;;;;;;22.25;19.50;;;;;20.32;93.50;99284.19;6216961;22;45425;-87
2022/04/23 09:56:58;;;;;;;;;21.75;19.50;;;;;20.58;93.28;99281.06;6310186;22;45329;-89
2022/04/23 09:59:23;;;;;;;;;22.75;20.75;;;;;20.87;93.00;99293.78;6304589;22;45645;-87
2022/04/23 10:01:50;;;;;;;;;20.33;18.67;;;;;21.14;92.98;99289.72;6205944;22;45212;-89
2022/04/23 10:04:26;;;;;;;;;21.00;20.25;;;;;21.44;92.93;99288.13;6307546;22;46068;-91
2022/04/23 10:06:53;;;;;;;;;24.25;21.50;;;;;21.73;92.10;99299.03;6311351;22;45852;-87
2022/04/23 10:09:21;;;;;;;;;28.75;24.00;;;;;21.95;91.32;99305.69;6310169;22;45658;-86
2022/04/23 10:11:49;;;;;;;;;22.00;19.75;;;;;22.12;90.59;99312.38;6204419;22;45562;-87
2022/04/23 10:14:22;;;;;;;;;24.50;20.50;;;;;22.20;90.53;99307.72;6308803;22;46435;-89
2022/04/23 10:16:48;;;;;;;;;22.00;20.25;;;;;22.31;89.95;99310.13;6203688;22;45363;-90
2022/04/23 10:19:15;;;;;;;;;22.75;20.25;;;;;22.43;89.91;99308.91;6307202;22;45279;-89
2022/04/23 10:21:50;;;;;;;;;22.50;18.75;;;;;22.55;89.41;99305.00;6204029;22;45506;-93
2022/04/23 10:24:31;;;;;;;;;21.00;21.00;;;;;22.65;88.92;99297.63;6310595;22;47193;-91
2022/04/23 10:27:07;;;;;;;;;20.67;19.67;;;;;22.78;88.62;99292.84;6310955;22;45246;-91
2022/04/23 10:29:34;;;;;;;;;23.33;21.00;;;;;23.01;88.88;99299.31;6203651;22;45343;-90
2022/04/23 10:32:08;;;;;;;;;19.67;19.33;;;;;23.21;88.62;99295.13;6309493;22;45648;-94
2022/04/23 10:34:34;;;;;;;;;20.67;20.33;;;;;23.33;88.30;99301.91;6205015;22;45207;-92
2022/04/23 10:37:20;;;;;;;;;25.67;19.67;;;;;23.54;88.07;99304.88;6314313;22;45528;-92
2022/04/23 10:40:05;;;;;;;;;22.75;20.50;;;;;23.70;87.02;99301.69;6205900;22;45489;-88
2022/04/23 10:42:32;;;;;;;;;21.75;19.75;;;;;23.76;86.96;99298.81;6202196;22;45424;-89
2022/04/23 10:45:03;;;;;;;;;23.25;23.25;;;;;23.88;86.54;99294.84;6203250;22;45650;-89
2022/04/23 10:47:34;;;;;;;;;20.67;17.00;;;;;24.24;86.84;99295.44;6202257;22;45316;-90
2022/04/23 10:50:15;;;;;;;;;18.67;18.00;;;;;24.79;86.35;99299.78;6203116;22;45398;-89
2022/04/23 10:52:41;;;;;;;;;18.00;16.67;;;;;25.29;86.43;99297.91;6176857;22;45721;-91
2022/04/23 10:55:11;;;;;;;;;19.00;18.50;;;;;25.67;85.61;99301.78;6203960;22;45500;-85
2022/04/23 10:57:40;;;;;;;;;20.00;18.00;;;;;26.09;85.28;99304.59;6176326;22;45870;-90
2022/04/23 11:00:19;;;;;;;;;20.00;16.67;;;;;26.77;85.02;99306.16;6175427;22;45528;-88
2022/04/23 11:02:54;;;;;;;;;20.67;18.67;;;;;27.85;84.48;99305.66;6175426;22;45315;-90
2022/04/23 11:13:53;;;;;;;;;17.33;17.33;;;;;34.95;75.94;99320.13;6203315;22;45258;-89
2022/04/23 11:16:20;;;;;;;;;13.67;13.00;;;;;36.02;74.18;99308.78;6201831;22;45479;-90
2022/04/23 11:18:49;;;;;;;;;21.67;18.67;;;;;37.03;71.37;99320.19;6205585;22;45262;-88
2022/04/23 11:21:24;;;;;;;;;23.67;18.33;;;;;37.90;68.78;99313.34;6201136;22;45814;-86
2022/04/23 11:23:51;;;;;;;;;18.00;16.00;;;;;38.55;66.87;99325.50;6202973;22;45405;-89
2022/04/23 11:26:26;;;;;;;;;22.33;18.00;;;;;38.99;63.96;99321.31;6203020;22;45372;-89
2022/04/23 11:29:02;;;;;;;;;20.33;18.00;;;;;39.01;62.39;99307.47;6203344;22;45324;-91
2022/04/23 11:31:27;;;;;;;;;18.33;16.33;;;;;39.46;61.52;99312.31;6202107;22;45570;-88
2022/04/23 11:33:54;;;;;;;;;16.33;14.67;;;;;40.14;60.08;99320.16;6202650;22;48389;-89
2022/04/23 11:36:25;;;;;;;;;17.67;17.00;;;;;40.84;59.05;99318.44;6202854;22;45475;-89
2022/04/23 11:38:50;;;;;;;;;17.33;15.67;;;;;41.07;56.59;99309.59;6202018;22;45769;-90
2022/04/23 11:41:36;;;;;;;;;16.33;14.33;;;;;40.88;56.04;99299.69;6202905;22;45368;-90
2022/04/23 11:47:06;;;;;;;;;14.00;13.00;;;;;40.54;53.51;99306.91;6203566;22;45414;-89
2022/04/23 11:49:32;;;;;;;;;13.33;13.33;;;;;40.41;52.22;99304.59;6202806;22;45686;-88
2022/04/23 11:52:00;;;;;;;;;13.00;11.67;;;;;40.58;52.92;99302.81;6204700;22;45715;-87
2022/04/23 11:54:33;;;;;;;;;13.33;13.33;;;;;40.04;52.73;99298.28;6206389;22;45164;-87
2022/04/23 11:56:58;;;;;;;;;12.33;12.00;;;;;40.45;52.71;99295.00;6177389;22;46144;-88
2022/04/23 11:59:24;;;;;;;;;9.67;9.67;;;;;41.44;52.87;99285.44;6203786;22;45634;-86
2022/04/23 12:01:49;;;;;;;;;11.33;10.00;;;;;41.88;51.19;99283.47;6205647;22;45642;-88
2022/04/23 12:04:14;;;;;;;;;11.67;11.33;;;;;42.18;50.84;99291.22;6205452;22;45340;-87
2022/04/23 12:06:42;;;;;;;;;9.00;9.00;;;;;42.33;49.72;99299.66;6175385;22;46875;-87
2022/04/23 12:09:08;;;;;;;;;9.33;9.00;;;;;43.51;50.12;99297.31;6202956;22;45348;-86
2022/04/23 12:11:33;;;;;;;;;7.00;7.00;;;;;44.01;47.83;99296.09;6177712;22;45361;-87
2022/04/23 12:14:00;;;;;;;;;14.67;13.33;;;;;43.81;47.43;99288.34;6204204;22;45460;-87
2022/04/23 12:16:44;;;;;;;;;11.00;9.67;;;;;43.06;46.41;99284.13;6177668;22;46132;-88
2022/04/23 12:19:13;;;;;;;;;9.33;9.33;;;;;42.90;46.52;99295.22;6203984;22;45356;-87
2022/04/23 12:21:54;;;;;;;;;13.00;11.00;;;;;42.09;46.42;99284.84;6179435;22;45686;-92
2022/04/23 12:24:33;;;;;;;;;9.00;7.33;;;;;43.32;46.81;99277.41;6205512;22;45276;-90
2022/04/23 12:27:05;;;;;;;;;7.00;7.00;;;;;44.95;46.57;99273.66;6203501;22;46087;-91
2022/04/23 12:40:52;;;;;;;;;15.00;11.00;;;;;43.68;41.20;99279.78;6205403;22;45347;-90
2022/04/23 12:43:22;;;;;;;;;13.33;11.00;;;;;42.42;41.79;99272.06;6172256;22;45364;-89
2022/04/23 12:46:03;;;;;;;;;9.33;9.33;;;;;40.88;42.50;99273.06;6175551;22;45468;-92
2022/04/23 12:48:28;;;;;;;;;8.33;8.33;;;;;39.33;43.67;99269.63;6204965;22;46143;-88
2022/04/23 12:51:07;;;;;;;;;10.00;10.00;;;;;37.81;44.14;99263.00;6175020;22;45425;-92
2022/04/23 12:53:34;;;;;;;;;7.33;7.33;;;;;36.74;45.15;99271.69;6205556;22;45371;-89
2022/04/23 12:56:03;;;;;;;;;9.67;8.00;;;;;37.41;46.53;99265.75;6205927;22;45320;-88
2022/04/23 12:58:30;;;;;;;;;7.67;7.67;;;;;39.09;46.79;99271.06;6172338;22;47376;-88
2022/04/23 13:00:55;;;;;;;;;9.33;8.33;;;;;40.44;45.94;99257.53;6204141;22;45437;-88
2022/04/23 13:04:03;;;;;;;;;8.00;7.33;;;;;39.44;44.67;99268.53;6200922;22;45245;-89
2022/04/23 13:08:57;;;;;;;;;8.00;6.00;;;;;35.44;46.07;99258.97;6202160;22;45790;-89
2022/04/23 13:11:30;;;;;;;;;9.67;9.33;;;;;34.67;47.23;99256.94;6202702;23;45318;-88
2022/04/23 13:14:06;;;;;;;;;6.67;6.67;;;;;35.82;48.70;99253.16;6174884;23;45362;-88
2022/04/23 13:16:39;;;;;;;;;7.33;7.00;;;;;37.14;47.27;99252.72;6201447;22;45496;-89
2022/04/23 13:19:05;;;;;;;;;6.33;5.33;;;;;36.45;46.30;99246.84;6201985;22;46257;-88
2022/04/23 13:21:32;;;;;;;;;7.33;7.00;;;;;34.89;46.88;99269.72;6203006;23;45443;-89
2022/04/23 13:23:58;;;;;;;;;7.67;7.67;;;;;33.28;47.66;99258.34;6176449;23;45327;-88
2022/04/23 13:26:29;;;;;;;;;10.33;7.00;;;;;31.95;49.36;99270.31;6203881;22;45282;-90
2022/04/23 13:28:56;;;;;;;;;9.33;8.33;;;;;30.92;50.79;99273.31;6177406;23;47569;-87
2022/04/23 13:31:21;;;;;;;;;11.00;10.33;;;;;30.09;51.70;99270.22;6200258;22;45739;-90
2022/04/23 13:33:47;;;;;;;;;9.00;9.00;;;;;29.87;53.05;99256.13;6221045;22;45279;-89
2022/04/23 13:36:13;;;;;;;;;6.00;6.00;;;;;30.99;53.36;99253.00;6224125;23;45355;-89
2022/04/23 13:38:39;;;;;;;;;7.00;6.33;;;;;33.31;54.88;99257.25;6221722;22;45415;-91
2022/04/23 13:41:08;;;;;;;;;8.00;7.00;;;;;35.83;53.39;99250.28;6216697;22;45278;-89
2022/04/23 13:43:35;;;;;;;;;6.00;6.00;;;;;37.70;51.44;99264.03;6206489;22;45357;-88
2022/04/23 13:46:00;;;;;;;;;7.67;6.33;;;;;38.54;49.25;99255.28;6176770;23;45670;-89
2022/04/23 13:48:26;;;;;;;;;7.67;7.00;;;;;39.31;48.87;99263.44;6174558;23;47438;-90
2022/04/23 13:50:53;;;;;;;;;5.33;5.00;;;;;39.95;48.05;99247.91;6173760;23;45597;-90
2022/04/23 13:53:18;;;;;;;;;9.00;6.33;;;;;40.30;46.94;99242.53;6175558;23;45450;-91
2022/04/23 13:55:43;;;;;;;;;6.33;6.00;;;;;39.66;46.37;99241.66;6173926;23;45321;-89
2022/04/23 13:58:09;;;;;;;;;6.00;4.33;;;;;38.27;45.62;99243.22;6174757;23;47776;-89
2022/04/23 14:00:34;;;;;;;;;7.00;5.00;;;;;37.96;46.92;99243.44;6201067;22;51492;-90
2022/04/23 14:11:11;;;;;;;;;3.00;3.00;;;;;33.03;47.78;99238.41;6204629;22;45721;-95
2022/04/23 14:13:36;;;;;;;;;7.33;7.00;;;;;31.95;48.84;99243.19;6178483;22;45428;-95
2022/04/23 14:16:02;;;;;;;;;4.00;4.00;;;;;30.94;49.26;99248.84;6205759;22;45669;-93
2022/04/23 14:18:27;;;;;;;;;4.67;4.33;;;;;30.03;50.33;99248.94;6206048;22;45715;-94
2022/04/23 14:20:52;;;;;;;;;4.00;4.00;;;;;29.20;51.17;99252.72;6178056;22;49973;-91
2022/04/23 14:23:17;;;;;;;;;4.00;4.00;;;;;28.32;52.99;99260.09;6178717;22;45324;-90
2022/04/23 14:25:44;;;;;;;;;4.00;4.00;;;;;27.48;56.16;99273.28;6176320;22;45547;-89
2022/04/23 14:28:09;;;;;;;;;3.00;3.00;;;;;26.55;63.18;99277.53;6203862;22;45563;-86
2022/04/23 14:30:36;;;;;;;;;3.33;3.33;;;;;25.46;67.15;99265.97;6176082;22;45210;-85
2022/04/23 14:33:02;;;;;;;;;4.00;4.00;;;;;24.48;67.28;99282.97;6203826;22;45452;-86
2022/04/23 14:35:27;;;;;;;;;3.00;2.00;;;;;23.55;68.60;99282.53;6172421;22;45679;-84
2022/04/23 14:37:52;;;;;;;;;1.33;1.00;;;;;22.70;71.69;99285.03;6200533;22;45446;-85
2022/04/23 14:40:18;;;;;;;;;3.00;1.00;;;;;22.02;73.29;99279.69;6202562;22;45377;-86
2022/04/23 14:42:44;;;;;;;;;2.33;1.00;;;;;21.43;76.59;99246.38;6204178;22;45429;-85
2022/04/23 14:45:12;;;;;;;;;1.00;1.00;;;;;21.00;79.17;99248.22;6203391;22;45409;-85
2022/04/23 14:47:37;;;;;;;;;3.00;2.00;;;;;20.64;80.98;99223.16;6202531;22;45369;-85
2022/04/23 14:50:03;;;;;;;;;4.00;4.00;;;;;20.32;85.26;99180.28;6201622;22;45290;-84
2022/04/23 14:55:12;;;;;;;;;1.67;1.67;;;;;19.92;87.64;99191.69;6205587;22;45203;-84
2022/04/23 14:57:38;;;;;;;;;1.00;1.00;;;;;19.74;90.90;99151.19;6202946;22;55910;-85
2022/04/23 15:00:04;;;;;;;;;1.33;1.00;;;;;19.68;91.23;99177.91;6202780;22;45359;-86
2022/04/23 15:02:31;;;;;;;;;0.67;0.00;;;;;19.66;93.36;99169.97;6175699;22;45258;-85
2022/04/23 15:04:57;;;;;;;;;1.00;1.00;;;;;19.61;93.91;99156.72;6175012;22;45229;-85
2022/04/23 15:07:24;;;;;;;;;3.00;2.00;;;;;19.63;96.27;99136.31;6201895;22;45736;-86
2022/04/23 15:09:50;;;;;;;;;1.00;0.67;;;;;19.69;97.75;99118.47;6202528;22;45399;-84
2022/04/23 15:12:15;;;;;;;;;1.00;1.00;;;;;19.76;97.75;99115.66;6203198;22;45443;-90
2022/04/23 15:14:42;;;;;;;;;2.00;2.00;;;;;19.99;98.42;99118.78;6205176;22;45752;-87
2022/04/23 15:17:07;;;;;;;;;1.00;1.00;;;;;20.18;99.07;99121.06;6202171;22;46266;-87
2022/04/23 15:19:33;;;;;;;;;1.00;1.00;;;;;20.43;98.63;99125.91;6200906;22;48336;-88
2022/04/23 15:21:58;;;;;;;;;1.00;1.00;;;;;20.63;98.87;99128.13;6174873;22;45462;-88
2022/04/23 15:24:24;;;;;;;;;1.00;1.00;;;;;20.79;99.19;99122.44;6202456;22;45392;-89
2022/04/23 15:26:50;;;;;;;;;3.00;3.00;;;;;21.02;99.10;99130.84;6202748;22;49380;-88